Time;durP1;ratioP1;P1;durP2;ratioP2;P2;SDS_P1;SDS_P2;PMS_P1;PMS_P2;Temp;Humidity;BMP_temperature;BMP_pressure;BME280_temperature;BME280_humidity;BME280_pressure;Samples;Min_cycle;Max_cycle;Signal;HPM_P1;HPM_P2
2022/03/20 00:00:30;;;;;;;9.60;2.00;;;;;;;-145.18;100.00;47510.19;5029419;28;20836;-63
2022/03/20 00:02:56;;;;;;;7.07;2.10;;;;;;;-145.18;100.00;47529.72;5011799;28;20271;-63
2022/03/20 00:05:22;;;;;;;7.10;2.33;;;;;;;-145.18;100.00;47514.09;5029692;28;20058;-63
2022/03/20 00:07:47;;;;;;;7.27;1.87;;;;;;;-145.18;100.00;47537.53;5029057;28;20608;-63
2022/03/20 00:10:14;;;;;;;6.47;1.77;;;;;;;-145.18;100.00;47525.81;5029955;28;20045;-63
2022/03/20 00:12:40;;;;;;;5.23;1.83;;;;;;;-145.18;100.00;47533.63;5011695;28;20042;-63
2022/03/20 00:15:07;;;;;;;7.30;1.70;;;;;;;-145.18;100.00;47523.88;5030724;28;20345;-63
2022/03/20 00:17:33;;;;;;;6.83;1.93;;;;;;;-145.18;100.00;47523.88;5014839;28;20041;-63
2022/03/20 00:19:58;;;;;;;3.57;1.30;;;;;;;-145.18;100.00;47529.72;5033153;28;20263;-63
2022/03/20 00:22:25;;;;;;;7.03;1.77;;;;;;;-145.18;100.00;47518.00;5033088;28;20025;-63
2022/03/20 00:24:50;;;;;;;5.50;1.77;;;;;;;-145.18;100.00;47523.88;5033201;28;20519;-63
2022/03/20 00:27:16;;;;;;;6.50;1.87;;;;;;;-145.18;100.00;47539.50;5032820;28;20279;-63
2022/03/20 00:29:43;;;;;;;5.27;1.80;;;;;;;-145.18;100.00;47504.31;5032881;28;20165;-63
2022/03/20 00:32:10;;;;;;;5.93;2.03;;;;;;;-145.18;100.00;47525.81;5032842;28;20618;-63
2022/03/20 00:34:36;;;;;;;6.90;2.37;;;;;;;-145.18;100.00;47531.69;5032777;28;20392;-63
2022/03/20 00:37:02;;;;;;;5.10;2.00;;;;;;;-145.18;100.00;47523.88;5032740;28;20285;-63
2022/03/20 00:39:28;;;;;;;5.87;2.00;;;;;;;-145.18;100.00;47512.16;5032830;28;20263;-63
2022/03/20 00:41:53;;;;;;;8.67;2.30;;;;;;;-145.18;100.00;47527.78;5024436;28;20297;-63
2022/03/20 00:44:18;;;;;;;6.07;2.50;;;;;;;-145.18;100.00;47510.19;5032869;28;20034;-63
2022/03/20 00:46:44;;;;;;;6.30;2.50;;;;;;;-145.18;100.00;47531.69;5032247;28;20080;-63
2022/03/20 00:49:10;;;;;;;8.77;2.97;;;;;;;-145.18;100.00;47541.44;5032842;28;20029;-63
2022/03/20 00:51:36;;;;;;;7.13;2.33;;;;;;;-145.18;100.00;47521.91;5032243;28;20532;-63
2022/03/20 00:54:01;;;;;;;7.37;2.80;;;;;;;-145.18;100.00;47523.88;5032617;28;20445;-63
2022/03/20 00:56:27;;;;;;;7.70;3.10;;;;;;;-145.18;100.00;47539.50;5032329;28;20314;-63
2022/03/20 00:58:52;;;;;;;5.43;2.53;;;;;;;-145.18;100.00;47531.69;5032622;28;20503;-63
2022/03/20 01:01:18;;;;;;;11.47;2.70;;;;;;;-145.18;100.00;47531.69;5032304;28;20475;-63
2022/03/20 01:03:44;;;;;;;12.23;3.17;;;;;;;-145.18;100.00;47541.44;5031915;28;20490;-63
2022/03/20 01:06:11;;;;;;;6.25;3.30;;;;;;;-145.18;100.00;47545.34;5032425;28;20079;-63
2022/03/20 01:08:37;;;;;;;6.53;3.17;;;;;;;-145.18;100.00;47543.41;5031940;28;20091;-63
2022/03/20 01:11:04;;;;;;;8.00;3.50;;;;;;;-145.18;100.00;47537.53;5032247;28;20038;-63
2022/03/20 01:13:30;;;;;;;7.20;3.65;;;;;;;-145.18;100.00;47535.59;5031703;28;20021;-63
2022/03/20 01:15:56;;;;;;;8.97;3.00;;;;;;;-145.18;100.00;47555.13;5014814;28;20508;-63
2022/03/20 01:18:22;;;;;;;12.07;4.18;;;;;;;-145.18;100.00;47531.69;5031772;28;20040;-63
2022/03/20 01:20:48;;;;;;;11.07;4.43;;;;;;;-145.18;100.00;47559.03;5032057;28;20038;-63
2022/03/20 01:23:13;;;;;;;11.40;4.23;;;;;;;-145.18;100.00;47555.13;5031437;28;20112;-63
2022/03/20 01:25:40;;;;;;;9.23;3.80;;;;;;;-145.18;100.00;47551.22;5014128;28;20660;-63
2022/03/20 01:28:05;;;;;;;10.10;4.00;;;;;;;-145.18;100.00;47557.06;5030583;28;20405;-63
2022/03/20 01:30:31;;;;;;;10.10;4.20;;;;;;;-145.18;100.00;47572.72;5032099;28;20026;-63
2022/03/20 01:32:56;;;;;;;12.67;4.60;;;;;;;-145.18;100.00;47576.63;5031350;28;20064;-63
2022/03/20 01:35:22;;;;;;;13.40;4.60;;;;;;;-145.18;100.00;47566.84;5031768;28;20120;-63
2022/03/20 01:37:47;;;;;;;11.13;5.17;;;;;;;-145.18;100.00;47576.63;5013885;28;20057;-63
2022/03/20 01:40:12;;;;;;;14.07;4.93;;;;;;;-145.18;100.00;47578.56;5032018;28;20025;-63
2022/03/20 01:42:38;;;;;;;14.03;5.13;;;;;;;-145.18;100.00;47574.66;5031310;28;20025;-63
2022/03/20 01:45:14;;;;;;;11.77;4.93;;;;;;;-145.18;100.00;47564.91;5031758;28;20505;-63
2022/03/20 01:47:39;;;;;;;;;;;;;;;-145.18;100.00;47566.84;5031467;28;20390;-63
2022/03/20 01:50:05;;;;;;;11.50;5.47;;;;;;;-145.18;100.00;47547.31;5031776;28;19917;-63
2022/03/20 01:52:32;;;;;;;15.37;5.23;;;;;;;-145.18;100.00;47572.72;5031045;28;20087;-63
2022/03/20 01:54:58;;;;;;;16.40;6.43;;;;;;;-145.18;100.00;47580.53;5031840;28;20758;-63
2022/03/20 01:57:23;;;;;;;12.17;6.00;;;;;;;-145.18;100.00;47555.13;5031049;28;20044;-63
2022/03/20 01:59:50;;;;;;;9.67;5.37;;;;;;;-145.18;100.00;47572.72;5031241;28;20026;-63
2022/03/20 02:03:15;;;;;;;15.40;6.18;;;;;;;-145.18;100.00;47562.94;5243484;22;20060;-63
2022/03/20 02:07:09;;;;;;;12.52;5.53;;;;;;;-145.18;100.00;47594.19;5019154;28;20041;-63
2022/03/20 02:11:02;;;;;;;17.30;6.63;;;;;;;-145.18;100.00;47582.47;5031366;28;20025;-63
2022/03/20 02:14:55;;;;;;;11.38;6.68;;;;;;;-145.18;100.00;47561.00;5031041;28;20029;-63
2022/03/20 02:18:48;;;;;;;15.30;6.97;;;;;;;-145.18;100.00;47580.53;5030824;28;20041;-63
2022/03/20 02:22:30;;;;;;;16.08;7.93;;;;;;;-145.18;100.00;47590.28;5031085;28;20030;-63
2022/03/20 02:26:17;;;;;;;13.00;6.65;;;;;;;-145.18;100.00;47596.16;5028418;28;20080;-63
2022/03/20 02:29:58;;;;;;;15.73;7.85;;;;;;;-145.18;100.00;47602.00;5028668;28;20043;-63
2022/03/20 02:37:26;;;;;;;17.58;8.38;;;;;;;-145.18;100.00;47592.25;5030359;28;20531;-63
2022/03/20 02:41:18;;;;;;;16.85;9.07;;;;;;;-145.18;100.00;47645.00;5030724;28;20112;-63
2022/03/20 02:45:03;;;;;;;16.25;8.70;;;;;;;-145.18;100.00;47631.31;5010638;28;20033;-63
2022/03/20 02:48:57;;;;;;;16.23;9.48;;;;;;;-145.18;100.00;47621.56;5010752;28;20026;-63
2022/03/20 02:52:51;;;;;;;16.77;9.35;;;;;;;-145.18;100.00;47586.38;5011083;28;20177;-63
2022/03/20 02:56:45;;;;;;;27.02;10.82;;;;;;;-145.18;100.00;47435.94;5010740;28;20030;-63
2022/03/20 03:00:40;;;;;;;19.17;11.02;;;;;;;-145.18;100.00;47137.03;5010471;28;20037;-63
2022/03/20 13:50:59;;;;;;;33.33;22.40;;;;;;;-145.18;99.32;47129.22;5001846;23;20536;-66
2022/03/20 13:53:26;;;;;;;33.20;22.47;;;;;;;-145.18;100.00;47183.94;4998453;28;20552;-65
2022/03/20 13:55:52;;;;;;;35.20;22.27;;;;;;;-145.18;100.00;47078.44;5006942;28;20096;-65
2022/03/20 13:58:19;;;;;;;31.07;22.50;;;;;;;-145.18;99.10;47195.66;5006538;23;20832;-65
2022/03/20 14:00:45;;;;;;;30.47;21.97;;;;;;;-145.18;100.00;47273.78;4968712;28;20031;-64
2022/03/20 15:47:47;;;;;;;40.97;25.50;;;;;;;-145.18;100.00;47367.56;5097396;27;20386;-64
2022/03/20 15:50:14;;;;;;;38.97;25.53;;;;;;;-145.18;100.00;47367.56;5095543;28;20040;-64
2022/03/20 15:52:40;;;;;;;40.10;25.37;;;;;;;-145.18;100.00;47381.25;5093839;28;20115;-63
2022/03/20 15:55:06;;;;;;;40.17;25.57;;;;;;;-145.18;100.00;47367.56;5092851;28;20308;-63
2022/03/20 15:57:31;;;;;;;43.07;25.93;;;;;;;-145.18;100.00;47385.16;5108189;28;20036;-63
2022/03/20 15:59:58;;;;;;;36.50;24.63;;;;;;;-145.18;100.00;47373.44;5105502;28;20271;-63
2022/03/20 16:02:24;;;;;;;38.97;26.97;;;;;;;-145.18;100.00;47371.47;5077563;28;20036;-64
2022/03/20 16:04:49;;;;;;;40.47;25.73;;;;;;;-145.18;100.00;47375.38;5085635;28;20284;-63
2022/03/20 16:07:15;;;;;;;36.57;23.20;;;;;;;-145.18;100.00;47387.09;5086618;28;20085;-63
2022/03/20 16:09:40;;;;;;;36.40;22.87;;;;;;;-145.18;100.00;47387.09;5083529;28;20044;-63
2022/03/20 16:12:06;;;;;;;39.90;27.73;;;;;;;-145.18;100.00;47398.81;5095938;28;20037;-63
2022/03/20 16:14:31;;;;;;;43.57;27.20;;;;;;;-145.18;100.00;47387.09;5104126;28;20032;-63
2022/03/20 16:16:56;;;;;;;50.07;31.30;;;;;;;-145.18;100.00;47363.66;5106839;28;20028;-63
2022/03/20 16:19:22;;;;;;;48.77;29.90;;;;;;;-145.18;100.00;47320.69;5103200;28;20032;-63
2022/03/20 16:21:47;;;;;;;46.00;27.73;;;;;;;-145.18;100.00;47320.69;5092193;28;20494;-63
2022/03/20 16:29:41;;;;;;;45.17;28.83;;;;;;;-145.18;100.00;47314.81;5107336;28;20862;-63
2022/03/20 16:32:12;;;;;;;52.87;35.77;;;;;;;-145.18;100.00;47342.16;5106234;28;20343;-63
2022/03/20 16:34:42;;;;;;;48.33;31.83;;;;;;;-145.18;100.00;47379.28;5106553;28;20044;-63
2022/03/20 16:37:08;;;;;;;43.83;31.20;;;;;;;-145.18;100.00;47367.56;5104183;28;20967;-63
2022/03/20 16:39:34;;;;;;;43.43;31.40;;;;;;;-145.18;100.00;47391.00;5066308;28;20270;-63
2022/03/20 16:42:00;;;;;;;45.90;30.80;;;;;;;-145.18;100.00;47406.63;5066420;28;20681;-63
2022/03/20 16:44:26;;;;;;;51.00;31.30;;;;;;;-145.18;100.00;47396.88;5066448;28;20573;-63
2022/03/20 16:46:52;;;;;;;45.80;29.80;;;;;;;-145.18;100.00;47392.97;5065916;28;20801;-63
2022/03/20 16:49:17;;;;;;;44.63;30.13;;;;;;;-145.18;100.00;47375.38;5066226;28;20290;-63
2022/03/20 16:51:45;;;;;;;48.17;31.93;;;;;;;-145.18;100.00;47381.25;5065864;28;20393;-63
2022/03/20 16:54:10;;;;;;;45.00;28.40;;;;;;;-145.18;100.00;47410.56;5081886;28;20038;-63
2022/03/20 16:56:36;;;;;;;43.33;29.53;;;;;;;-145.18;100.00;47394.91;5085595;28;20265;-63
2022/03/20 16:59:02;;;;;;;48.63;34.67;;;;;;;-145.18;100.00;47381.25;5070650;28;20028;-63
2022/03/20 17:01:28;;;;;;;55.30;35.40;;;;;;;-145.18;100.00;47383.19;5072671;28;20029;-63
2022/03/20 17:03:53;;;;;;;43.80;30.20;;;;;;;-145.18;100.00;47387.09;5071470;28;20284;-63
2022/03/20 17:06:18;;;;;;;42.90;30.10;;;;;;;-145.18;100.00;47391.00;5072498;28;20497;-63
2022/03/20 17:08:44;;;;;;;51.03;31.50;;;;;;;-145.18;100.00;47389.06;5070493;28;20032;-63
2022/03/20 17:11:09;;;;;;;50.50;32.90;;;;;;;-145.18;100.00;47418.38;5077589;28;20032;-63
2022/03/20 17:13:35;;;;;;;55.67;39.40;;;;;;;-145.18;100.00;47435.94;5057442;28;20124;-63
2022/03/20 17:16:01;;;;;;;48.23;33.90;;;;;;;-145.18;100.00;47416.41;5052378;28;20098;-63
2022/03/20 17:18:27;;;;;;;47.77;32.90;;;;;;;-145.18;100.00;47414.47;5051128;28;20180;-63
2022/03/20 17:20:53;;;;;;;43.47;31.60;;;;;;;-145.18;100.00;47434.00;5051618;28;20544;-64
2022/03/20 17:23:19;;;;;;;48.37;33.47;;;;;;;-145.18;100.00;47430.09;5051029;28;20274;-63
2022/03/20 17:25:44;;;;;;;46.20;31.83;;;;;;;-145.18;100.00;47435.94;5050539;28;20749;-63
2022/03/20 17:28:10;;;;;;;45.03;29.57;;;;;;;-145.18;100.00;47418.38;5059483;28;20037;-64
2022/03/20 17:30:36;;;;;;;49.03;30.83;;;;;;;-145.18;100.00;47428.13;5086084;28;20028;-63
2022/03/20 17:33:03;;;;;;;41.47;29.73;;;;;;;-145.18;100.00;47434.00;5071686;28;20115;-63
2022/03/20 17:35:29;;;;;;;55.43;37.57;;;;;;;-145.18;100.00;47453.53;5073744;28;20327;-63
2022/03/20 17:37:55;;;;;;;52.27;36.93;;;;;;;-145.18;100.00;47437.91;5073762;28;20757;-63
2022/03/20 17:40:21;;;;;;;45.63;32.67;;;;;;;-145.18;100.00;47451.56;5071646;28;20036;-63
2022/03/20 17:42:48;;;;;;;50.70;31.40;;;;;;;-145.18;100.00;47439.84;5071771;28;20770;-63
2022/03/20 17:45:13;;;;;;;47.03;33.33;;;;;;;-145.18;100.00;47447.66;5072172;28;20071;-63
2022/03/20 17:47:39;;;;;;;52.37;34.50;;;;;;;-145.18;100.00;47465.25;5081380;28;20300;-63
2022/03/20 17:50:06;;;;;;;45.77;30.33;;;;;;;-145.18;100.00;47469.16;5079831;28;20368;-63
2022/03/20 17:52:31;;;;;;;48.70;33.30;;;;;;;-145.18;100.00;47478.94;5077665;28;20035;-63
2022/03/20 17:54:58;;;;;;;48.97;32.43;;;;;;;-145.18;100.00;47463.31;5071114;28;20277;-63
2022/03/20 17:57:25;;;;;;;45.37;30.43;;;;;;;-145.18;100.00;47461.34;5080780;28;20071;-63
2022/03/20 17:59:51;;;;;;;44.73;31.60;;;;;;;-145.18;100.00;47484.78;5080884;28;20253;-64
2022/03/20 18:07:51;;;;;;;123.20;63.97;;;;;;;-145.18;100.00;47480.88;5078675;28;20358;-63
2022/03/20 18:10:22;;;;;;;57.83;36.57;;;;;;;-145.18;100.00;47500.41;5078311;28;20262;-63
2022/03/20 18:12:48;;;;;;;51.37;33.47;;;;;;;-145.18;100.00;47512.16;5080985;28;20272;-63
2022/03/20 18:15:17;;;;;;;50.53;33.90;;;;;;;-145.18;100.00;47490.66;5073531;28;20281;-63
2022/03/20 18:17:43;;;;;;;46.27;32.10;;;;;;;-145.18;100.00;47496.50;5070828;28;20284;-63
2022/03/20 18:20:10;;;;;;;53.07;35.23;;;;;;;-145.18;100.00;47510.19;5070735;28;20265;-63
2022/03/20 18:22:37;;;;;;;68.70;45.83;;;;;;;-145.18;100.00;47494.56;5070761;28;20312;-63
2022/03/20 18:25:04;;;;;;;52.90;33.83;;;;;;;-145.18;100.00;47514.09;5070803;28;20337;-63
2022/03/20 18:27:31;;;;;;;49.10;32.43;;;;;;;-145.18;100.00;47508.22;5069022;28;20281;-63
2022/03/20 18:29:57;;;;;;;50.53;33.47;;;;;;;-145.18;100.00;47514.09;5070154;28;20885;-63
2022/03/20 18:32:23;;;;;;;53.33;34.23;;;;;;;-145.18;100.00;47516.06;5081256;28;20307;-63
2022/03/20 18:34:49;;;;;;;58.03;34.07;;;;;;;-145.18;100.00;47551.22;5090784;28;20476;-63
2022/03/20 18:37:14;;;;;;;50.13;33.67;;;;;;;-145.18;100.00;47557.06;5061551;28;20289;-63
2022/03/20 18:39:40;;;;;;;48.63;31.60;;;;;;;-145.18;100.00;47547.31;5065726;28;20079;-64
2022/03/20 18:42:06;;;;;;;57.20;32.83;;;;;;;-145.18;100.00;47561.00;5069967;28;20029;-63
2022/03/20 18:44:33;;;;;;;55.03;34.27;;;;;;;-145.18;100.00;47566.84;5052938;28;20111;-63
2022/03/20 18:46:59;;;;;;;57.03;34.97;;;;;;;-145.18;100.00;47580.53;5050196;28;20294;-63
2022/03/20 18:49:28;;;;;;;60.17;35.87;;;;;;;-145.18;100.00;47572.72;5050870;28;20349;-63
2022/03/20 18:51:54;;;;;;;53.77;34.50;;;;;;;-145.18;100.00;47582.47;5049315;28;20800;-63
2022/03/20 18:54:19;;;;;;;55.53;36.33;;;;;;;-145.18;100.00;47600.06;5056423;28;20273;-63
2022/03/20 18:56:44;;;;;;;53.37;34.90;;;;;;;-145.18;100.00;47518.00;5069828;28;20029;-63
2022/03/20 18:59:11;;;;;;;56.17;35.07;;;;;;;-145.18;100.00;47316.78;5061901;28;20033;-63
2022/03/20 19:01:37;;;;;;;55.53;34.90;;;;;;;-145.18;100.00;47555.13;5050305;28;20493;-63
2022/03/20 19:04:02;;;;;;;58.00;34.00;;;;;;;-145.18;100.00;47598.09;5050156;28;20270;-63
2022/03/20 19:06:28;;;;;;;51.80;33.07;;;;;;;-145.18;100.00;47441.81;5048815;28;20033;-63
2022/03/20 19:08:55;;;;;;;54.73;33.47;;;;;;;-145.18;100.00;47109.69;5049708;28;20044;-63
2022/03/20 19:11:22;;;;;;;55.78;35.70;;;;;;;-145.18;100.00;47105.78;5049337;28;20722;-63
2022/03/20 19:13:47;;;;;;;56.72;35.63;;;;;;;-145.18;100.00;46949.50;5049428;28;20288;-63
2022/03/20 19:16:13;;;;;;;59.37;37.60;;;;;;;-145.18;100.00;46922.16;5048383;28;20048;-63
2022/03/20 19:18:39;;;;;;;58.57;34.80;;;;;;;-145.18;100.00;46959.25;5049558;28;20477;-63
2022/03/20 19:21:04;;;;;;;62.03;37.03;;;;;;;-145.18;100.00;46875.28;5049083;28;20397;-63
2022/03/20 19:23:30;;;;;;;66.60;41.00;;;;;;;-145.18;100.00;46816.66;5049620;28;20052;-63
2022/03/20 19:25:55;;;;;;;70.00;41.63;;;;;;;-145.18;100.00;46824.47;5047518;28;20067;-63
2022/03/20 19:28:21;;;;;;;67.80;40.90;;;;;;;-145.18;100.00;46814.72;5049413;28;20028;-63
2022/03/20 19:30:47;;;;;;;69.93;43.05;;;;;;;-145.18;100.00;46808.84;5049605;28;20090;-63
2022/03/20 19:33:13;;;;;;;60.87;36.53;;;;;;;-145.18;100.00;46916.28;5052244;28;20481;-63
2022/03/20 19:41:06;;;;;;;57.45;37.75;;;;;;;-145.18;100.00;46871.38;5064762;28;20044;-63
2022/03/20 19:43:32;;;;;;;62.60;37.30;;;;;;;-145.18;100.00;46904.56;5063087;28;20032;-63
2022/03/20 19:45:58;;;;;;;57.23;37.40;;;;;;;-145.18;100.00;46875.28;5067649;28;20028;-63
2022/03/20 19:48:23;;;;;;;62.60;36.70;;;;;;;-145.18;100.00;46914.34;5068049;28;20115;-63
2022/03/20 19:50:53;;;;;;;57.13;36.83;;;;;;;-145.18;100.00;46924.09;5061922;28;20040;-63
2022/03/20 19:53:19;;;;;;;63.20;37.70;;;;;;;-145.18;100.00;46963.19;5061515;28;20029;-64
2022/03/20 19:55:45;;;;;;;62.83;38.05;;;;;;;-145.18;100.00;46969.03;5052709;28;20762;-64
2022/03/20 19:58:10;;;;;;;59.87;37.63;;;;;;;-145.18;100.00;46969.03;5052955;28;20089;-63
2022/03/20 20:00:35;;;;;;;58.33;37.60;;;;;;;-145.18;100.00;46937.78;5062511;28;20492;-63
2022/03/20 20:03:01;;;;;;;57.57;36.47;;;;;;;-145.18;100.00;46908.47;5068783;28;20078;-63
2022/03/20 20:05:26;;;;;;;61.20;38.33;;;;;;;-145.18;100.00;46924.09;5066148;28;20033;-63
2022/03/20 20:07:52;;;;;;;58.17;37.70;;;;;;;-145.18;100.00;46924.09;5066667;28;20037;-63
2022/03/20 20:10:17;;;;;;;60.57;37.77;;;;;;;-145.18;100.00;46877.22;5063296;28;20060;-63
2022/03/20 20:12:43;;;;;;;56.80;36.40;;;;;;;-145.18;100.00;46902.63;5058889;28;20111;-63
2022/03/20 20:15:09;;;;;;;59.57;37.50;;;;;;;-145.18;100.00;46900.66;5061448;28;20024;-63
2022/03/20 20:17:36;;;;;;;55.33;35.57;;;;;;;-145.18;100.00;46945.59;5067887;28;20039;-63
2022/03/20 20:20:09;;;;;;;58.47;37.07;;;;;;;-145.18;100.00;46951.44;5057025;28;20753;-63
2022/03/20 20:22:35;;;;;;;59.75;35.50;;;;;;;-145.18;100.00;47478.94;5054293;28;20281;-63
2022/03/20 20:25:07;;;;;;;61.38;35.70;;;;;;;-145.18;100.00;47473.06;5058225;28;20024;-63
2022/03/20 20:27:34;;;;;;;59.42;35.53;;;;;;;-145.18;100.00;47164.38;5058736;28;20025;-63
2022/03/20 20:30:00;;;;;;;60.95;37.22;;;;;;;-145.18;100.00;47109.69;5068716;28;20845;-63
2022/03/20 20:32:26;;;;;;;63.60;37.70;;;;;;;-145.18;100.00;46943.63;5058392;28;20024;-63
2022/03/20 20:34:52;;;;;;;65.18;37.25;;;;;;;-145.18;100.00;46951.44;5070231;28;20523;-66
2022/03/20 20:37:22;;;;;;;63.33;38.83;;;;;;;-145.18;100.00;46926.06;5070353;28;20055;-64
2022/03/20 20:39:48;;;;;;;60.80;38.10;;;;;;;-145.18;100.00;46972.94;5066779;28;20029;-63
2022/03/20 20:42:13;;;;;;;61.87;37.20;;;;;;;-145.18;100.00;46931.91;5072359;28;20059;-64
2022/03/20 20:44:38;;;;;;;64.73;39.77;;;;;;;-145.18;100.00;46904.56;5073650;28;20079;-63
2022/03/20 20:47:04;;;;;;;61.13;37.03;;;;;;;-145.18;100.00;46910.44;5054754;28;20874;-63
2022/03/20 20:49:29;;;;;;;65.47;39.27;;;;;;;-145.18;100.00;46888.94;5071445;28;20035;-63
2022/03/20 20:51:58;;;;;;;61.40;38.37;;;;;;;-145.18;100.00;46855.72;5071407;28;20033;-63
2022/03/20 20:54:24;;;;;;;60.90;38.17;;;;;;;-145.18;100.00;46867.44;5070650;28;20016;-63
2022/03/20 20:56:50;;;;;;;60.20;37.80;;;;;;;-145.18;100.00;47101.88;5071827;28;20024;-63
2022/03/20 20:59:17;;;;;;;58.77;35.57;;;;;;;-145.18;100.00;47238.63;5069477;28;20393;-63
2022/03/20 21:01:44;;;;;;;61.90;37.65;;;;;;;-145.18;100.00;47056.94;5071778;28;20032;-63
2022/03/20 21:04:10;;;;;;;66.75;37.45;;;;;;;-145.18;100.00;46920.19;5071840;28;20041;-63
2022/03/20 21:06:36;;;;;;;61.40;37.13;;;;;;;-145.18;100.00;46845.97;5072789;28;20036;-63
2022/03/20 21:11:48;;;;;;;64.38;39.63;;;;;;;-145.18;100.00;46816.66;5052422;28;20439;-63
2022/03/20 21:14:17;;;;;;;64.97;39.93;;;;;;;-145.18;100.00;46803.00;5052345;28;20037;-63
2022/03/20 21:16:44;;;;;;;66.63;38.67;;;;;;;-145.18;100.00;46820.56;5052639;28;20036;-64
2022/03/20 21:19:10;;;;;;;61.75;38.65;;;;;;;-145.18;100.00;46787.38;5052297;28;20029;-65
2022/03/20 21:21:35;;;;;;;63.53;38.97;;;;;;;-145.18;100.00;46867.44;5052361;28;20036;-65
2022/03/20 21:24:01;;;;;;;64.10;39.10;;;;;;;-145.18;100.00;46834.25;5052138;28;20572;-62
2022/03/20 21:26:27;;;;;;;66.53;38.97;;;;;;;-145.18;100.00;46822.53;5051956;28;20075;-65
2022/03/20 21:28:52;;;;;;;65.77;36.60;;;;;;;-145.18;100.00;46863.53;5052348;28;20033;-65
2022/03/20 21:31:18;;;;;;;63.50;37.73;;;;;;;-145.18;100.00;46867.44;5052222;28;20064;-65
2022/03/20 21:33:44;;;;;;;63.50;37.77;;;;;;;-145.18;100.00;46890.91;5052421;28;20033;-65
2022/03/20 21:36:09;;;;;;;62.23;37.30;;;;;;;-145.18;100.00;46871.38;5051515;28;20044;-65
2022/03/20 21:38:35;;;;;;;67.47;39.57;;;;;;;-145.18;100.00;46810.81;5061891;28;20020;-65
2022/03/20 21:41:02;;;;;;;65.93;38.17;;;;;;;-145.18;100.00;46810.81;5070579;28;20032;-65
2022/03/20 21:43:30;;;;;;;65.25;38.28;;;;;;;-145.18;100.00;46816.66;5071015;28;20024;-64
2022/03/20 21:45:56;;;;;;;65.43;39.47;;;;;;;-145.18;100.00;46818.63;5069905;28;20040;-65
2022/03/20 21:48:23;;;;;;;60.92;36.60;;;;;;;-145.18;100.00;46818.63;5072347;28;20037;-65
2022/03/20 21:50:50;;;;;;;65.78;38.30;;;;;;;-145.18;100.00;46826.44;5071541;28;20028;-64
2022/03/20 21:53:16;;;;;;;65.25;38.75;;;;;;;-145.18;100.00;46840.09;5072181;28;20055;-65
2022/03/20 21:55:46;;;;;;;78.40;41.92;;;;;;;-145.18;100.00;46855.72;5070051;28;20748;-65
2022/03/20 21:58:13;;;;;;;67.22;40.90;;;;;;;-145.18;100.00;46820.56;5071769;28;20066;-65
2022/03/20 22:00:39;;;;;;;67.22;40.63;;;;;;;-145.18;100.00;46806.91;5071528;28;20439;-65
2022/03/20 22:03:05;;;;;;;71.73;41.47;;;;;;;-145.18;100.00;46816.66;5071189;28;20033;-65
2022/03/20 22:05:30;;;;;;;65.47;38.20;;;;;;;-145.18;100.00;46820.56;5070199;28;20064;-63
2022/03/20 22:07:55;;;;;;;71.80;39.37;;;;;;;-145.18;100.00;46722.91;5071464;28;20041;-62
2022/03/20 22:10:21;;;;;;;84.93;43.40;;;;;;;-145.18;100.00;46709.22;5071473;28;20540;-62
2022/03/20 22:12:47;;;;;;;74.83;41.97;;;;;;;-145.18;100.00;46715.09;5071040;28;20033;-63
2022/03/20 22:15:14;;;;;;;73.57;42.27;;;;;;;-145.18;100.00;46711.19;5071119;28;20107;-63
2022/03/20 22:17:39;;;;;;;69.20;40.28;;;;;;;-145.18;100.00;46707.28;5071332;28;20067;-63
2022/03/20 22:20:06;;;;;;;68.13;40.63;;;;;;;-145.18;100.00;46801.03;5071037;28;20120;-63
2022/03/20 22:22:32;;;;;;;75.55;41.35;;;;;;;-145.18;100.00;46765.88;5070949;28;20028;-63
2022/03/20 22:24:58;;;;;;;70.50;40.47;;;;;;;-145.18;100.00;46756.09;5070697;28;20040;-65
2022/03/20 22:27:24;;;;;;;68.50;40.30;;;;;;;-145.18;100.00;46740.47;5070175;28;20044;-63
2022/03/20 22:29:50;;;;;;;76.00;42.83;;;;;;;-145.18;100.00;46732.66;5070930;28;20416;-63
2022/03/20 22:32:15;;;;;;;76.17;43.93;;;;;;;-145.18;100.00;46711.19;5071260;28;20266;-65
2022/03/20 22:37:38;;;;;;;72.77;42.10;;;;;;;-145.18;100.00;46734.63;5071159;28;20029;-63
2022/03/20 22:37:42;;;;;;;73.13;41.60;;;;;;;-145.18;100.00;46728.75;5071151;28;20041;-63
2022/03/20 22:40:17;;;;;;;76.85;41.83;;;;;;;-145.18;100.00;46711.19;5070691;28;20034;-63
2022/03/20 22:42:49;;;;;;;70.78;40.05;;;;;;;-145.18;100.00;46740.47;5071166;28;20035;-63
2022/03/20 22:45:14;;;;;;;69.53;41.10;;;;;;;-145.18;100.00;46732.66;5070383;28;20052;-63
2022/03/20 22:47:41;;;;;;;70.17;41.70;;;;;;;-145.18;100.00;46746.34;5080780;28;20144;-63
2022/03/20 22:50:13;;;;;;;78.95;43.58;;;;;;;-145.18;100.00;46761.97;5090988;28;20479;-63
2022/03/20 22:52:43;;;;;;;72.00;41.47;;;;;;;-145.18;100.00;46761.97;5091378;28;20031;-63
2022/03/20 22:55:17;;;;;;;75.13;43.72;;;;;;;-145.18;100.00;46728.75;5090365;28;20036;-63
2022/03/20 22:57:49;;;;;;;76.30;42.88;;;;;;;-145.18;100.00;46719.00;5091275;28;20036;-63
2022/03/20 23:00:26;;;;;;;76.22;44.70;;;;;;;-145.18;100.00;46693.59;5080152;28;20070;-63
2022/03/20 23:02:52;;;;;;;73.45;43.00;;;;;;;-145.18;100.00;46715.09;5077275;28;20024;-63
2022/03/20 23:05:17;;;;;;;73.50;41.93;;;;;;;-145.18;100.00;46740.47;5090631;28;20129;-64
2022/03/20 23:07:42;;;;;;;68.67;41.30;;;;;;;-145.18;100.00;46801.03;5090718;28;20043;-64
2022/03/20 23:10:08;;;;;;;69.20;39.93;;;;;;;-145.18;100.00;46803.00;5090677;28;20129;-63
2022/03/20 23:12:34;;;;;;;73.80;40.77;;;;;;;-145.18;100.00;46801.03;5090682;28;20035;-63
2022/03/20 23:14:59;;;;;;;71.23;42.10;;;;;;;-145.18;100.00;46771.75;5088512;28;20280;-63
2022/03/20 23:17:25;;;;;;;70.20;40.60;;;;;;;-145.18;100.00;46742.44;5090431;28;20111;-63
2022/03/20 23:19:50;;;;;;;69.17;40.90;;;;;;;-145.18;100.00;46695.56;5090115;28;20395;-63
2022/03/20 23:22:15;;;;;;;70.70;41.57;;;;;;;-145.18;100.00;46703.38;5090398;28;20062;-64
2022/03/20 23:24:41;;;;;;;68.37;41.73;;;;;;;-145.18;100.00;46705.31;5090242;28;20039;-63
2022/03/20 23:27:07;;;;;;;69.10;40.97;;;;;;;-145.18;100.00;46701.41;5088626;28;20397;-63
2022/03/20 23:29:32;;;;;;;72.50;41.47;;;;;;;-145.18;100.00;46701.41;5090228;28;20512;-63
2022/03/20 23:31:58;;;;;;;69.13;40.77;;;;;;;-145.18;100.00;46709.22;5088435;28;20032;-63
2022/03/20 23:34:25;;;;;;;72.97;41.40;;;;;;;-145.18;100.00;46709.22;5089171;28;20031;-63
2022/03/20 23:36:50;;;;;;;64.53;40.22;;;;;;;-145.18;100.00;46717.03;5089911;28;20395;-64
2022/03/20 23:39:16;;;;;;;63.57;40.27;;;;;;;-145.18;100.00;46744.38;5090365;28;20028;-63
2022/03/20 23:44:25;;;;;;;64.47;37.95;;;;;;;-145.18;100.00;46814.72;5090504;28;20042;-63
2022/03/20 23:46:51;;;;;;;60.73;37.03;;;;;;;-145.18;100.00;46818.63;5089456;28;20135;-63
2022/03/20 23:49:16;;;;;;;66.07;37.17;;;;;;;-145.18;100.00;46855.72;5084474;28;20067;-63
2022/03/20 23:51:42;;;;;;;63.57;37.43;;;;;;;-145.18;100.00;46820.56;5069324;28;20040;-63
2022/03/20 23:54:07;;;;;;;64.13;38.17;;;;;;;-145.18;100.00;46820.56;5068555;28;20509;-63
2022/03/20 23:56:33;;;;;;;62.67;38.03;;;;;;;-145.18;100.00;46779.56;5068277;28;20131;-63
2022/03/20 23:58:58;;;;;;;64.13;38.50;;;;;;;-145.18;100.00;46769.78;5069730;28;20029;-63
